Time;durP1;ratioP1;P1;durP2;ratioP2;P2;SDS_P1;SDS_P2;PMS_P1;PMS_P2;Temp;Humidity;BMP_temperature;BMP_pressure;BME280_temperature;BME280_humidity;BME280_pressure;Samples;Min_cycle;Max_cycle;Signal;HPM_P1;HPM_P2
2023/04/30 00:01:37;;;;;;;9.35;3.25;;;4.30;91.20;;;;;;5004938;28;20105;-76
2023/04/30 00:04:02;;;;;;;13.55;3.90;;;4.30;91.30;;;;;;5003379;28;20157;-76
2023/04/30 00:06:28;;;;;;;10.93;4.00;;;4.20;91.50;;;;;;5007766;28;20423;-76
2023/04/30 00:08:53;;;;;;;12.70;4.10;;;4.30;91.70;;;;;;5008205;28;20054;-76
2023/04/30 00:11:19;;;;;;;13.80;3.78;;;4.30;91.60;;;;;;5001892;28;20042;-76
2023/04/30 00:13:45;;;;;;;19.42;3.63;;;4.20;91.70;;;;;;5003891;28;20082;-76
2023/04/30 00:16:10;;;;;;;13.68;4.32;;;4.10;91.80;;;;;;5006989;28;20038;-76
2023/04/30 00:18:37;;;;;;;15.77;4.15;;;4.10;91.80;;;;;;5003825;28;20369;-76
2023/04/30 00:21:02;;;;;;;11.55;4.05;;;4.10;91.80;;;;;;5007311;28;20162;-76
2023/04/30 00:23:28;;;;;;;10.35;4.07;;;4.00;91.80;;;;;;5004357;28;20026;-76
2023/04/30 00:25:53;;;;;;;13.32;4.43;;;4.00;92.10;;;;;;5004242;28;20050;-76
2023/04/30 00:28:19;;;;;;;14.60;4.13;;;3.90;92.40;;;;;;5001606;28;20129;-76
2023/04/30 00:30:44;;;;;;;16.00;3.95;;;3.80;92.50;;;;;;5004065;28;20103;-76
2023/04/30 00:33:10;;;;;;;16.48;4.28;;;3.80;92.60;;;;;;5003397;28;20018;-76
2023/04/30 00:35:35;;;;;;;10.07;3.97;;;3.80;92.50;;;;;;5004526;28;20505;-76
2023/04/30 00:38:01;;;;;;;13.80;4.65;;;3.70;92.70;;;;;;5006057;28;20064;-76
2023/04/30 00:40:26;;;;;;;14.68;4.75;;;3.60;92.90;;;;;;5000118;28;20064;-76
2023/04/30 00:42:54;;;;;;;13.13;4.72;;;3.60;93.10;;;;;;5008186;28;20104;-76
2023/04/30 00:45:22;;;;;;;11.10;4.53;;;3.60;93.20;;;;;;5003833;28;20096;-76
2023/04/30 00:47:48;;;;;;;11.55;4.95;;;3.50;93.30;;;;;;5003127;28;20458;-76
2023/04/30 00:50:15;;;;;;;16.02;4.47;;;3.50;93.50;;;;;;5003974;28;20044;-76
2023/04/30 00:52:41;;;;;;;9.70;4.60;;;3.40;93.50;;;;;;5004548;28;20463;-76
2023/04/30 00:55:08;;;;;;;13.63;4.82;;;3.30;93.50;;;;;;5007396;28;20026;-76
2023/04/30 00:57:35;;;;;;;9.32;3.85;;;3.30;93.60;;;;;;5008450;28;20080;-76
2023/04/30 01:00:03;;;;;;;9.85;4.25;;;3.20;93.40;;;;;;5002912;28;20034;-76
2023/04/30 01:02:30;;;;;;;12.27;4.50;;;3.10;93.60;;;;;;5006336;28;20037;-76
2023/04/30 01:04:56;;;;;;;12.70;4.60;;;3.10;93.70;;;;;;5005053;28;20472;-76
2023/04/30 01:07:21;;;;;;;9.55;4.60;;;3.00;94.00;;;;;;5005533;28;20041;-76
2023/04/30 01:09:47;;;;;;;15.77;4.72;;;3.00;94.10;;;;;;5008522;28;20368;-76
2023/04/30 01:12:40;;;;;;;13.25;4.80;;;3.00;94.30;;;;;;5008492;28;20029;-76
2023/04/30 01:15:29;;;;;;;11.13;4.60;;;2.90;94.40;;;;;;4996840;28;20029;-76
2023/04/30 01:18:17;;;;;;;8.73;4.10;;;2.80;94.10;;;;;;5001905;28;20025;-76
2023/04/30 01:20:49;;;;;;;13.02;4.38;;;2.70;93.90;;;;;;5006459;28;20332;-76
2023/04/30 01:23:51;;;;;;;13.88;5.03;;;2.60;93.70;;;;;;5006310;28;20076;-76
2023/04/30 01:26:46;;;;;;;10.70;3.95;;;2.60;93.70;;;;;;5008577;28;20229;-76
2023/04/30 01:29:15;;;;;;;11.60;4.30;;;2.50;93.70;;;;;;5019130;28;20398;-76
2023/04/30 01:31:42;;;;;;;13.23;4.70;;;2.40;93.60;;;;;;5006570;28;20038;-76
2023/04/30 01:34:08;;;;;;;10.40;4.55;;;2.40;93.80;;;;;;5002947;28;20137;-76
2023/04/30 01:36:49;;;;;;;9.80;5.03;;;2.30;93.80;;;;;;5005530;28;20145;-76
2023/04/30 01:39:29;;;;;;;11.02;4.53;;;2.30;94.00;;;;;;4995273;28;20173;-76
2023/04/30 01:42:19;;;;;;;16.45;4.68;;;2.30;94.20;;;;;;5002410;28;20129;-76
2023/04/30 01:45:11;;;;;;;12.10;4.87;;;2.20;94.10;;;;;;5001878;28;20142;-76
2023/04/30 01:47:49;;;;;;;10.85;4.60;;;2.20;94.30;;;;;;5003036;28;20034;-76
2023/04/30 01:50:37;;;;;;;12.55;4.82;;;2.10;94.30;;;;;;5006222;28;20030;-76
2023/04/30 01:53:12;;;;;;;16.45;5.15;;;2.10;94.30;;;;;;4998698;28;20023;-76
2023/04/30 01:55:55;;;;;;;10.95;4.93;;;2.10;94.60;;;;;;5005434;28;20030;-76
2023/04/30 01:58:22;;;;;;;11.82;5.10;;;2.10;94.70;;;;;;5003491;28;20120;-76
2023/04/30 02:00:47;;;;;;;19.38;5.15;;;2.00;94.80;;;;;;5000752;28;20061;-76
2023/04/30 02:03:13;;;;;;;16.60;5.28;;;2.00;94.90;;;;;;5000450;28;20036;-76
2023/04/30 02:05:38;;;;;;;15.95;5.30;;;2.00;94.70;;;;;;5005130;28;20034;-76
2023/04/30 02:08:04;;;;;;;13.65;5.43;;;1.90;94.60;;;;;;5015714;28;20458;-76
2023/04/30 02:10:30;;;;;;;13.68;4.93;;;1.90;94.50;;;;;;5002248;28;20080;-76
2023/04/30 02:12:55;;;;;;;14.40;5.00;;;1.90;94.70;;;;;;4999945;28;20030;-76
2023/04/30 02:15:21;;;;;;;12.43;5.07;;;1.80;94.80;;;;;;5004077;28;20038;-76
2023/04/30 02:17:46;;;;;;;10.13;4.63;;;1.80;94.70;;;;;;5000325;28;20045;-76
2023/04/30 02:20:12;;;;;;;11.90;5.18;;;1.80;94.70;;;;;;5000788;28;20080;-76
2023/04/30 02:22:38;;;;;;;15.90;5.80;;;1.70;94.70;;;;;;5004094;28;20026;-76
2023/04/30 02:25:04;;;;;;;10.63;5.22;;;1.70;94.90;;;;;;5003038;28;20046;-76
2023/04/30 02:27:31;;;;;;;14.63;5.10;;;1.70;95.10;;;;;;5000118;28;20514;-76
2023/04/30 02:29:57;;;;;;;16.17;5.85;;;1.70;95.30;;;;;;5003997;28;20040;-76
2023/04/30 02:32:22;;;;;;;11.38;4.93;;;1.60;95.20;;;;;;5000459;28;20030;-76
2023/04/30 02:34:48;;;;;;;13.20;5.55;;;1.60;95.10;;;;;;5008178;28;20036;-76
2023/04/30 02:37:13;;;;;;;12.15;5.45;;;1.60;95.20;;;;;;5005165;28;20103;-76
2023/04/30 02:39:40;;;;;;;17.50;5.18;;;1.50;95.20;;;;;;5001898;28;20049;-77
2023/04/30 02:42:06;;;;;;;14.35;5.85;;;1.50;95.30;;;;;;5004675;28;20490;-77
2023/04/30 02:44:34;;;;;;;14.85;5.20;;;1.50;95.30;;;;;;5004056;28;20052;-77
2023/04/30 02:47:00;;;;;;;13.68;5.82;;;1.40;95.40;;;;;;5008221;28;20072;-76
2023/04/30 02:49:26;;;;;;;18.13;5.75;;;1.40;95.40;;;;;;5002610;28;20058;-77
2023/04/30 02:51:52;;;;;;;10.27;5.07;;;1.40;95.50;;;;;;5008601;28;20061;-75
2023/04/30 02:54:18;;;;;;;12.70;5.97;;;1.40;95.70;;;;;;5006142;28;20227;-75
2023/04/30 02:56:44;;;;;;;10.70;5.85;;;1.40;95.80;;;;;;5010275;28;20021;-74
2023/04/30 02:59:09;;;;;;;14.13;6.32;;;1.30;95.70;;;;;;4996128;28;20014;-75
2023/04/30 03:01:35;;;;;;;14.45;6.68;;;1.30;95.70;;;;;;4995456;28;20022;-75
2023/04/30 03:04:02;;;;;;;13.75;6.28;;;1.20;95.70;;;;;;4999440;28;20454;-75
2023/04/30 03:06:28;;;;;;;15.63;6.05;;;1.20;95.60;;;;;;5004080;28;20026;-75
2023/04/30 03:08:53;;;;;;;13.65;6.25;;;1.10;95.50;;;;;;5007269;28;20080;-76
2023/04/30 03:11:20;;;;;;;20.35;6.90;;;1.20;95.70;;;;;;5006423;28;20120;-76
2023/04/30 03:13:50;;;;;;;14.18;6.85;;;1.20;95.70;;;;;;5001733;28;20037;-76
2023/04/30 03:16:17;;;;;;;13.05;6.10;;;1.10;95.60;;;;;;5007251;28;20029;-76
2023/04/30 03:18:43;;;;;;;16.67;6.47;;;1.10;95.70;;;;;;4994898;28;20352;-76
2023/04/30 03:21:09;;;;;;;15.65;6.22;;;1.10;95.70;;;;;;5020005;28;20051;-77
2023/04/30 03:23:34;;;;;;;14.75;6.78;;;1.20;96.00;;;;;;5007768;28;20026;-76
2023/04/30 03:26:00;;;;;;;12.73;6.07;;;1.20;96.20;;;;;;5001034;28;20060;-76
2023/04/30 03:28:25;;;;;;;17.35;6.25;;;1.20;96.30;;;;;;5007287;28;20133;-77
2023/04/30 03:30:51;;;;;;;11.75;6.05;;;1.20;96.50;;;;;;5002867;28;20042;-76
2023/04/30 03:33:17;;;;;;;15.85;6.63;;;1.10;96.30;;;;;;5005724;28;20399;-76
2023/04/30 03:35:42;;;;;;;15.38;5.80;;;1.10;96.40;;;;;;5003306;28;20328;-76
2023/04/30 03:38:08;;;;;;;14.35;6.45;;;1.10;96.30;;;;;;5007885;28;20194;-75
2023/04/30 03:40:33;;;;;;;15.40;6.50;;;1.10;96.40;;;;;;5007027;28;20037;-76
2023/04/30 03:42:59;;;;;;;12.88;5.95;;;1.10;96.50;;;;;;5008056;28;20085;-76
2023/04/30 03:45:24;;;;;;;13.70;6.15;;;1.00;96.40;;;;;;5005660;28;20042;-75
2023/04/30 03:47:51;;;;;;;18.00;6.63;;;1.00;96.30;;;;;;5010223;28;20053;-75
2023/04/30 03:50:17;;;;;;;19.77;6.72;;;1.00;96.20;;;;;;5004225;28;20029;-76
2023/04/30 03:52:43;;;;;;;18.45;7.18;;;0.90;96.20;;;;;;5008972;28;20415;-75
2023/04/30 03:55:09;;;;;;;14.00;6.55;;;1.00;96.30;;;;;;5003426;28;20042;-75
2023/04/30 03:57:35;;;;;;;24.38;7.45;;;1.00;96.20;;;;;;5000502;28;20021;-76
2023/04/30 04:00:00;;;;;;;14.80;7.13;;;1.00;96.40;;;;;;5013396;28;20029;-75
2023/04/30 04:02:26;;;;;;;24.08;7.57;;;1.00;96.60;;;;;;4997600;28;20052;-76
2023/04/30 04:04:52;;;;;;;18.08;6.65;;;1.00;96.60;;;;;;5006349;28;20045;-76
2023/04/30 04:07:17;;;;;;;20.83;7.13;;;1.00;96.50;;;;;;5013809;28;20040;-75
2023/04/30 04:09:43;;;;;;;22.70;7.53;;;1.00;96.40;;;;;;5006147;28;20071;-75
2023/04/30 04:12:09;;;;;;;21.30;7.82;;;1.00;96.50;;;;;;5015118;28;20030;-75
2023/04/30 04:14:34;;;;;;;17.15;7.53;;;1.00;96.40;;;;;;5007813;28;20030;-75
2023/04/30 04:17:00;;;;;;;19.95;6.95;;;1.00;96.30;;;;;;5005109;28;20252;-76
2023/04/30 04:19:27;;;;;;;21.50;6.45;;;1.00;96.30;;;;;;5002622;28;20119;-76
2023/04/30 04:21:52;;;;;;;16.08;7.78;;;1.00;96.30;;;;;;5007582;28;20041;-76
2023/04/30 04:24:18;;;;;;;22.30;9.60;;;1.00;96.30;;;;;;5008567;28;20470;-75
2023/04/30 04:26:43;;;;;;;17.88;7.80;;;1.10;96.30;;;;;;4998590;28;20481;-76
2023/04/30 04:29:09;;;;;;;25.50;6.82;;;1.10;96.30;;;;;;5001777;28;20030;-79
2023/04/30 04:31:35;;;;;;;19.92;8.20;;;1.10;96.40;;;;;;4999827;28;20101;-80
2023/04/30 04:34:03;;;;;;;18.85;8.07;;;1.20;96.50;;;;;;5005260;28;20144;-79
2023/04/30 04:36:29;;;;;;;25.83;8.65;;;1.10;96.40;;;;;;5002454;28;20027;-79
2023/04/30 04:39:02;;;;;;;22.30;8.90;;;1.20;96.50;;;;;;5007206;28;20145;-80
2023/04/30 04:41:29;;;;;;;23.35;9.18;;;1.30;96.40;;;;;;5005261;28;20042;-79
2023/04/30 04:43:55;;;;;;;26.90;8.70;;;1.30;96.40;;;;;;5013630;28;20041;-79
2023/04/30 04:46:21;;;;;;;20.17;8.02;;;1.40;96.30;;;;;;5004357;28;20029;-79
2023/04/30 04:48:46;;;;;;;24.50;9.60;;;1.40;96.30;;;;;;5004829;28;20048;-79
2023/04/30 04:51:12;;;;;;;24.50;9.20;;;1.50;96.40;;;;;;5011666;28;20161;-75
2023/04/30 04:53:38;;;;;;;28.75;8.98;;;1.60;96.50;;;;;;4998283;28;20103;-75
2023/04/30 04:56:04;;;;;;;24.17;9.40;;;1.60;96.40;;;;;;5006784;28;20061;-79
2023/04/30 04:58:29;;;;;;;25.45;9.85;;;1.70;96.70;;;;;;5008788;28;20147;-77
2023/04/30 05:00:56;;;;;;;22.80;10.13;;;1.80;96.70;;;;;;5011117;28;20034;-77
2023/04/30 05:03:21;;;;;;;24.92;9.60;;;1.80;96.70;;;;;;4997398;28;20021;-75
2023/04/30 05:05:47;;;;;;;26.75;10.23;;;1.90;96.70;;;;;;5001901;28;20375;-77
2023/04/30 05:08:12;;;;;;;31.45;8.95;;;1.90;96.80;;;;;;5008278;28;20032;-75
2023/04/30 05:10:38;;;;;;;23.75;9.30;;;2.00;96.90;;;;;;5002690;28;20057;-75
2023/04/30 05:13:03;;;;;;;27.67;10.27;;;2.10;97.00;;;;;;5006631;28;20034;-75
2023/04/30 05:15:29;;;;;;;25.20;10.32;;;2.20;97.10;;;;;;5004605;28;20032;-75
2023/04/30 05:17:55;;;;;;;24.80;9.93;;;2.30;97.10;;;;;;4999451;28;20363;-76
2023/04/30 05:20:20;;;;;;;27.60;9.90;;;2.40;97.10;;;;;;5004620;28;20044;-75
2023/04/30 05:22:46;;;;;;;28.08;10.73;;;2.50;97.10;;;;;;5007274;28;20060;-74
2023/04/30 05:25:11;;;;;;;24.55;10.82;;;2.60;97.10;;;;;;5006561;28;20482;-73
2023/04/30 05:27:37;;;;;;;25.58;10.27;;;2.70;97.20;;;;;;5006002;28;20034;-74
2023/04/30 05:30:03;;;;;;;30.77;11.00;;;2.70;97.20;;;;;;5002111;28;20597;-76
2023/04/30 05:32:28;;;;;;;33.17;11.60;;;2.80;97.20;;;;;;5004299;28;20120;-73
2023/04/30 05:34:54;;;;;;;35.30;10.57;;;2.90;97.20;;;;;;5003474;28;20083;-74
2023/04/30 05:37:21;;;;;;;31.17;11.25;;;3.10;97.20;;;;;;5006961;28;20292;-73
2023/04/30 05:39:47;;;;;;;27.20;10.88;;;3.20;97.20;;;;;;5000558;28;20084;-73
2023/04/30 05:42:12;;;;;;;28.55;10.90;;;3.50;97.20;;;;;;5006718;28;20065;-74
2023/04/30 05:44:39;;;;;;;28.13;10.98;;;3.60;97.00;;;;;;5004614;28;20034;-74
2023/04/30 05:47:05;;;;;;;39.13;11.27;;;3.90;96.80;;;;;;4999444;28;20029;-73
2023/04/30 05:49:30;;;;;;;29.50;11.73;;;4.10;95.90;;;;;;5005346;28;20026;-74
2023/04/30 05:51:56;;;;;;;43.97;11.10;;;4.20;94.90;;;;;;4999256;28;20136;-73
2023/04/30 05:54:22;;;;;;;33.60;10.60;;;4.40;94.70;;;;;;4999346;28;20037;-74
2023/04/30 05:56:47;;;;;;;35.13;10.95;;;4.60;94.20;;;;;;5004336;28;20044;-75
2023/04/30 05:59:13;;;;;;;33.05;11.25;;;4.60;93.70;;;;;;5000302;28;20034;-75
2023/04/30 06:01:38;;;;;;;30.45;11.60;;;4.80;93.60;;;;;;5000805;28;20676;-74
2023/04/30 06:04:04;;;;;;;27.38;11.65;;;4.90;93.30;;;;;;4999772;28;20025;-75
2023/04/30 06:06:30;;;;;;;31.30;11.02;;;5.10;93.30;;;;;;5004234;28;20109;-75
2023/04/30 06:08:56;;;;;;;28.00;10.30;;;5.20;93.20;;;;;;5002695;28;20040;-74
2023/04/30 06:11:24;;;;;;;23.30;9.80;;;5.20;92.40;;;;;;5001463;28;20023;-75
2023/04/30 06:13:50;;;;;;;24.95;9.43;;;5.40;92.50;;;;;;4997410;28;20022;-75
2023/04/30 06:16:15;;;;;;;26.13;9.00;;;5.60;92.60;;;;;;5003158;28;20132;-74
2023/04/30 06:18:41;;;;;;;23.50;8.77;;;5.60;91.40;;;;;;5003586;28;20514;-78
2023/04/30 06:21:06;;;;;;;18.20;8.15;;;5.80;91.00;;;;;;5003830;28;20526;-77
2023/04/30 06:23:32;;;;;;;25.38;8.23;;;5.90;90.70;;;;;;5001258;28;20038;-78
2023/04/30 06:25:57;;;;;;;16.17;7.25;;;6.20;91.40;;;;;;5002197;28;20054;-78
2023/04/30 06:28:23;;;;;;;13.93;6.82;;;6.30;90.30;;;;;;5003315;28;20030;-78
2023/04/30 06:30:50;;;;;;;15.05;6.15;;;6.40;89.40;;;;;;5005314;28;20048;-78
2023/04/30 06:33:16;;;;;;;16.20;5.35;;;6.50;88.20;;;;;;4995852;28;20065;-78
2023/04/30 06:35:41;;;;;;;17.08;5.20;;;6.50;88.20;;;;;;4998285;28;20442;-77
2023/04/30 06:38:07;;;;;;;13.45;4.72;;;6.80;87.20;;;;;;5001820;28;20176;-78
2023/04/30 06:40:33;;;;;;;12.30;5.07;;;7.00;87.10;;;;;;5002413;28;20084;-78
2023/04/30 06:42:58;;;;;;;12.60;5.00;;;7.20;86.70;;;;;;5002994;28;20049;-78
2023/04/30 06:45:24;;;;;;;11.35;4.60;;;7.20;85.50;;;;;;5002314;28;20445;-78
2023/04/30 06:47:50;;;;;;;11.70;4.65;;;7.50;84.60;;;;;;5003621;28;20038;-77
2023/04/30 06:50:16;;;;;;;9.52;4.15;;;7.60;84.20;;;;;;4999340;28;20033;-76
2023/04/30 06:52:41;;;;;;;13.80;4.32;;;7.90;84.70;;;;;;5014234;28;20030;-76
2023/04/30 06:55:08;;;;;;;7.32;3.13;;;8.30;84.90;;;;;;5009077;28;20112;-74
2023/04/30 06:57:36;;;;;;;14.32;3.65;;;9.00;81.30;;;;;;5002614;28;20030;-74
2023/04/30 07:00:03;;;;;;;12.68;3.38;;;9.10;77.40;;;;;;5003366;28;20034;-74
2023/04/30 07:02:28;;;;;;;9.38;3.50;;;9.20;77.10;;;;;;5011862;28;20029;-75
2023/04/30 07:04:54;;;;;;;12.48;4.13;;;9.30;75.50;;;;;;5005766;28;20041;-74
2023/04/30 07:07:19;;;;;;;11.02;3.67;;;9.50;76.60;;;;;;5009614;28;20572;-74
2023/04/30 07:09:45;;;;;;;7.47;3.33;;;10.00;77.00;;;;;;5009603;28;20026;-74
2023/04/30 07:12:12;;;;;;;11.30;2.80;;;9.40;69.10;;;;;;5009400;28;20461;-74
2023/04/30 07:14:38;;;;;;;10.40;3.38;;;9.30;72.40;;;;;;5011551;28;20433;-74
2023/04/30 07:17:03;;;;;;;9.13;3.20;;;8.80;71.00;;;;;;5015484;28;20125;-75
2023/04/30 07:19:29;;;;;;;10.35;3.10;;;8.30;71.40;;;;;;5000708;28;20394;-74
2023/04/30 07:21:54;;;;;;;10.27;3.22;;;8.20;72.90;;;;;;5004640;28;20033;-75
2023/04/30 07:24:20;;;;;;;10.70;3.33;;;8.20;74.10;;;;;;5020822;28;20057;-75
2023/04/30 07:26:45;;;;;;;13.60;3.50;;;8.90;72.80;;;;;;5013408;28;20151;-75
2023/04/30 07:29:11;;;;;;;10.32;2.80;;;8.80;72.50;;;;;;5004363;28;20030;-75
2023/04/30 07:31:36;;;;;;;11.30;3.08;;;8.80;70.80;;;;;;5002129;28;20443;-75
2023/04/30 07:34:02;;;;;;;9.55;3.35;;;9.10;72.70;;;;;;5008250;28;20045;-75
2023/04/30 07:36:27;;;;;;;9.10;3.10;;;9.00;69.80;;;;;;5016927;28;20036;-76
2023/04/30 07:38:53;;;;;;;9.32;3.00;;;8.90;70.40;;;;;;5016557;28;20034;-76
2023/04/30 07:41:19;;;;;;;8.45;2.22;;;9.10;70.70;;;;;;5014676;28;20116;-76
2023/04/30 07:43:44;;;;;;;13.88;2.67;;;9.10;68.30;;;;;;5011369;28;20034;-76
2023/04/30 07:46:10;;;;;;;10.45;2.72;;;9.30;67.70;;;;;;5015345;28;20075;-75
2023/04/30 07:48:36;;;;;;;13.15;3.03;;;10.10;67.60;;;;;;5015628;28;20069;-77
2023/04/30 07:51:03;;;;;;;6.18;1.95;;;10.40;65.20;;;;;;5005048;28;20350;-75
2023/04/30 07:53:29;;;;;;;8.98;2.60;;;10.50;60.20;;;;;;5004792;28;20100;-76
2023/04/30 07:55:55;;;;;;;7.35;2.13;;;11.00;62.20;;;;;;5014693;28;20449;-75
2023/04/30 07:58:20;;;;;;;6.40;2.20;;;11.50;65.00;;;;;;5021106;28;20033;-75
2023/04/30 08:00:46;;;;;;;9.02;2.42;;;11.30;60.00;;;;;;5011905;28;20435;-75
2023/04/30 08:03:12;;;;;;;9.60;2.97;;;12.00;59.70;;;;;;5006379;28;20109;-76
2023/04/30 08:05:37;;;;;;;5.35;2.30;;;11.10;58.40;;;;;;5004586;28;20195;-76
2023/04/30 08:08:03;;;;;;;7.25;2.20;;;11.70;58.70;;;;;;5005515;28;20563;-76
2023/04/30 08:10:28;;;;;;;8.38;2.45;;;12.10;58.30;;;;;;5019344;28;20030;-77
2023/04/30 08:12:54;;;;;;;10.43;2.38;;;11.70;58.50;;;;;;5022391;28;20580;-76
2023/04/30 08:15:20;;;;;;;8.88;2.42;;;11.90;60.10;;;;;;5015911;28;20021;-76
2023/04/30 08:17:51;;;;;;;5.70;2.28;;;11.70;61.50;;;;;;5020608;28;20044;-77
2023/04/30 08:20:17;;;;;;;9.68;2.58;;;11.90;58.50;;;;;;5013481;28;20042;-77
2023/04/30 08:22:43;;;;;;;10.30;2.42;;;12.10;60.10;;;;;;5019135;28;20034;-76
2023/04/30 08:25:12;;;;;;;7.38;2.63;;;11.80;59.70;;;;;;5014003;28;20061;-76
2023/04/30 08:27:38;;;;;;;6.00;2.28;;;11.80;55.50;;;;;;5023228;28;20049;-76
2023/04/30 08:30:06;;;;;;;8.38;2.58;;;11.80;54.00;;;;;;5015987;28;20082;-76
2023/04/30 08:32:35;;;;;;;7.22;2.72;;;12.20;56.50;;;;;;5009980;28;20026;-76
2023/04/30 08:35:01;;;;;;;10.05;2.42;;;11.90;55.40;;;;;;5012038;28;20075;-77
2023/04/30 08:37:27;;;;;;;8.13;2.20;;;11.70;57.20;;;;;;5009254;28;20022;-77
2023/04/30 08:39:53;;;;;;;10.45;2.53;;;11.90;56.10;;;;;;5001467;28;20106;-75
2023/04/30 08:42:23;;;;;;;9.38;2.92;;;12.00;56.40;;;;;;5012285;28;20128;-77
2023/04/30 08:44:48;;;;;;;6.70;2.25;;;11.90;55.60;;;;;;5011860;28;20026;-78
2023/04/30 08:47:15;;;;;;;10.50;2.60;;;11.00;58.40;;;;;;5000491;28;20137;-77
2023/04/30 08:49:42;;;;;;;7.75;2.13;;;11.20;57.40;;;;;;5007024;28;20041;-77
2023/04/30 08:52:08;;;;;;;9.50;2.38;;;10.90;58.10;;;;;;5014922;28;20026;-77
2023/04/30 08:54:36;;;;;;;8.65;2.70;;;10.30;58.80;;;;;;5008325;28;20021;-76
2023/04/30 08:57:02;;;;;;;9.60;3.03;;;10.30;58.10;;;;;;5010875;28;20079;-76
2023/04/30 08:59:27;;;;;;;11.73;2.55;;;10.50;57.40;;;;;;5005503;28;20080;-76
2023/04/30 09:01:53;;;;;;;9.80;2.10;;;10.80;57.60;;;;;;5007248;28;20034;-75
2023/04/30 09:04:18;;;;;;;9.90;2.65;;;12.00;56.30;;;;;;5015480;28;20048;-75
2023/04/30 09:06:45;;;;;;;6.13;2.30;;;12.10;56.00;;;;;;5004964;28;20135;-76
2023/04/30 09:09:12;;;;;;;5.82;2.50;;;12.30;51.10;;;;;;5022947;28;20028;-76
2023/04/30 09:11:38;;;;;;;6.88;2.22;;;11.60;52.90;;;;;;5016039;28;20081;-74
2023/04/30 09:14:04;;;;;;;7.90;2.97;;;11.50;54.60;;;;;;5008356;28;20013;-75
2023/04/30 09:16:47;;;;;;;8.95;2.95;;;11.50;55.20;;;;;;5012051;28;20326;-75
2023/04/30 09:19:27;;;;;;;7.65;2.75;;;11.80;53.80;;;;;;5002409;28;20103;-76
2023/04/30 09:21:53;;;;;;;7.57;2.00;;;11.10;53.90;;;;;;5004410;28;20371;-75
2023/04/30 09:24:19;;;;;;;12.50;2.83;;;11.50;55.10;;;;;;5013252;28;20026;-76
2023/04/30 09:26:48;;;;;;;9.20;2.92;;;11.80;54.60;;;;;;5008049;28;20195;-76
2023/04/30 09:29:14;;;;;;;7.63;2.65;;;11.90;52.30;;;;;;5011706;28;20018;-76
2023/04/30 09:31:45;;;;;;;12.00;2.55;;;12.40;54.30;;;;;;5014745;28;20211;-75
2023/04/30 09:34:12;;;;;;;9.50;2.47;;;12.70;51.80;;;;;;5007647;28;20465;-75
2023/04/30 09:36:53;;;;;;;10.20;2.80;;;12.80;52.20;;;;;;5006565;28;20041;-74
2023/04/30 09:39:19;;;;;;;7.97;2.55;;;13.20;53.60;;;;;;5009940;28;20082;-74
2023/04/30 09:41:45;;;;;;;7.93;2.85;;;13.60;53.40;;;;;;5007486;28;20018;-74
2023/04/30 09:44:27;;;;;;;12.80;3.05;;;13.60;52.00;;;;;;4996887;28;20480;-75
2023/04/30 09:46:56;;;;;;;7.50;2.70;;;14.20;52.60;;;;;;5001055;28;20065;-76
2023/04/30 09:49:21;;;;;;;9.80;2.83;;;14.00;50.20;;;;;;5000591;28;20416;-74
2023/04/30 09:51:55;;;;;;;7.63;2.70;;;13.40;51.50;;;;;;5006169;28;20084;-77
2023/04/30 09:54:25;;;;;;;13.20;3.10;;;13.00;52.20;;;;;;5005192;28;20026;-76
2023/04/30 09:56:53;;;;;;;8.77;2.78;;;12.70;53.40;;;;;;5008537;28;20064;-76
2023/04/30 09:59:21;;;;;;;11.52;2.58;;;12.80;52.80;;;;;;5002200;28;20571;-77
2023/04/30 10:01:49;;;;;;;10.48;2.65;;;13.60;54.00;;;;;;5004346;28;20430;-75
2023/04/30 10:04:14;;;;;;;7.10;2.72;;;13.60;50.20;;;;;;5004927;28;20139;-75
2023/04/30 10:06:41;;;;;;;9.27;2.60;;;14.10;50.50;;;;;;5008072;28;20434;-74
2023/04/30 10:09:07;;;;;;;8.88;2.80;;;14.10;50.10;;;;;;5011281;28;20123;-74
2023/04/30 10:11:36;;;;;;;9.30;2.90;;;14.20;48.60;;;;;;5005524;28;20049;-76
2023/04/30 10:14:11;;;;;;;8.80;2.60;;;14.50;48.30;;;;;;5011166;28;20026;-75
2023/04/30 10:17:02;;;;;;;10.05;3.08;;;14.10;49.40;;;;;;4998899;28;20037;-76
2023/04/30 10:19:31;;;;;;;9.13;2.70;;;13.80;48.40;;;;;;5010094;28;20030;-74
2023/04/30 10:21:56;;;;;;;6.05;2.22;;;13.60;49.70;;;;;;5003355;28;20097;-75
2023/04/30 10:24:22;;;;;;;8.85;2.67;;;13.60;49.00;;;;;;5003476;28;20083;-74
2023/04/30 10:26:49;;;;;;;10.02;2.92;;;13.60;48.90;;;;;;5000538;28;21660;-76
2023/04/30 10:29:16;;;;;;;5.78;2.75;;;14.10;48.90;;;;;;5007373;28;20037;-75
2023/04/30 10:31:46;;;;;;;9.65;3.20;;;14.00;47.90;;;;;;5000682;28;20026;-75
2023/04/30 10:34:44;;;;;;;6.00;3.10;;;14.30;47.60;;;;;;5006942;28;20029;-74
2023/04/30 10:37:33;;;;;;;13.07;3.08;;;14.50;47.50;;;;;;5015415;28;20740;-74
2023/04/30 10:39:59;;;;;;;8.05;2.80;;;15.10;47.90;;;;;;5000450;28;20096;-75
2023/04/30 10:42:25;;;;;;;8.90;3.00;;;14.90;47.20;;;;;;5003164;28;20029;-74
2023/04/30 10:44:50;;;;;;;6.65;2.47;;;14.70;49.40;;;;;;4996540;28;20366;-74
2023/04/30 10:47:18;;;;;;;7.70;2.78;;;14.30;45.40;;;;;;4996680;28;20030;-76
2023/04/30 10:49:48;;;;;;;9.80;2.95;;;14.30;45.50;;;;;;4994557;28;20482;-77
2023/04/30 10:52:26;;;;;;;7.13;2.70;;;14.60;45.70;;;;;;5005077;28;20132;-76
2023/04/30 10:54:51;;;;;;;8.70;3.05;;;14.90;46.50;;;;;;5014941;28;20026;-76
2023/04/30 10:57:18;;;;;;;7.03;2.67;;;15.50;44.20;;;;;;5016297;28;20034;-75
2023/04/30 11:00:13;;;;;;;8.95;3.20;;;15.40;43.20;;;;;;5008830;28;20030;-77
2023/04/30 11:02:44;;;;;;;6.85;2.72;;;15.10;46.00;;;;;;5016122;28;20041;-77
2023/04/30 11:05:14;;;;;;;7.10;2.75;;;15.00;43.40;;;;;;5007702;28;20057;-78
2023/04/30 11:07:57;;;;;;;7.03;2.85;;;15.10;44.40;;;;;;5006894;28;20312;-77
2023/04/30 11:10:25;;;;;;;8.52;2.90;;;15.60;45.60;;;;;;5011688;28;20309;-77
2023/04/30 11:12:52;;;;;;;6.47;2.50;;;15.20;43.40;;;;;;5016134;28;20018;-77
2023/04/30 11:15:21;;;;;;;9.05;2.78;;;15.00;44.20;;;;;;5004763;28;20048;-77
2023/04/30 11:17:48;;;;;;;8.18;2.75;;;15.40;43.80;;;;;;5008615;28;20037;-77
2023/04/30 11:20:19;;;;;;;8.48;2.88;;;15.70;43.70;;;;;;5011180;28;20030;-77
2023/04/30 11:22:44;;;;;;;6.20;2.65;;;15.80;40.70;;;;;;5010524;28;20014;-77
2023/04/30 11:25:18;;;;;;;5.72;2.38;;;14.90;44.70;;;;;;5012101;28;20061;-77
2023/04/30 11:27:44;;;;;;;8.27;2.58;;;15.80;45.80;;;;;;5015570;28;20131;-77
2023/04/30 11:30:15;;;;;;;10.80;3.03;;;16.30;42.40;;;;;;5002284;28;20076;-78
2023/04/30 11:32:42;;;;;;;;;;;16.10;41.30;;;;;;5005724;28;20117;-78
2023/04/30 11:35:08;;;;;;;6.78;2.80;;;16.50;40.30;;;;;;4995035;28;19917;-77
2023/04/30 11:37:36;;;;;;;7.60;2.50;;;16.00;42.70;;;;;;5004640;28;20478;-78
2023/04/30 11:40:07;;;;;;;7.03;2.80;;;16.10;43.70;;;;;;5009887;28;20106;-78
2023/04/30 11:42:34;;;;;;;8.70;3.40;;;16.30;41.70;;;;;;5011992;28;20083;-77
2023/04/30 11:45:09;;;;;;;7.97;3.05;;;16.70;44.50;;;;;;5008613;28;20038;-77
2023/04/30 11:47:43;;;;;;;7.28;2.72;;;16.70;41.30;;;;;;5016317;28;20109;-78
2023/04/30 11:50:10;;;;;;;8.27;2.47;;;17.00;40.50;;;;;;5004119;28;20049;-78
2023/04/30 11:52:36;;;;;;;7.40;2.65;;;17.60;40.20;;;;;;4996235;28;20284;-78
2023/04/30 11:55:14;;;;;;;8.75;2.53;;;17.60;39.70;;;;;;5017226;28;20033;-78
2023/04/30 11:57:43;;;;;;;5.57;2.33;;;18.00;42.30;;;;;;5000201;28;20030;-78
2023/04/30 12:00:16;;;;;;;7.03;2.83;;;18.40;40.50;;;;;;5015047;28;20109;-77
2023/04/30 12:02:44;;;;;;;9.32;2.92;;;17.70;40.00;;;;;;5012434;28;20026;-77
2023/04/30 12:05:18;;;;;;;8.27;2.85;;;18.40;40.30;;;;;;5007951;28;20048;-77
2023/04/30 12:08:05;;;;;;;7.38;3.40;;;17.60;37.60;;;;;;5014354;28;20112;-75
2023/04/30 12:10:31;;;;;;;10.73;6.55;;;18.00;38.70;;;;;;5008537;28;20441;-75
2023/04/30 12:12:57;;;;;;;10.10;3.50;;;18.10;37.30;;;;;;5008829;28;20518;-75
2023/04/30 12:15:25;;;;;;;12.77;3.78;;;16.70;39.60;;;;;;5016334;28;20132;-75
2023/04/30 12:17:52;;;;;;;7.70;3.05;;;17.80;41.20;;;;;;5018053;28;20411;-76
2023/04/30 12:20:20;;;;;;;6.18;3.50;;;18.90;39.30;;;;;;5004158;28;20137;-76
2023/04/30 12:22:46;;;;;;;6.53;2.63;;;18.70;37.50;;;;;;5013051;28;20030;-76
2023/04/30 12:25:17;;;;;;;8.15;2.75;;;18.80;37.80;;;;;;5009332;28;20116;-76
2023/04/30 12:27:48;;;;;;;8.65;2.88;;;19.30;37.80;;;;;;5008418;28;20115;-76
2023/04/30 12:30:13;;;;;;;;;;;19.20;38.20;;;;;;5019801;28;20164;-76
2023/04/30 12:32:41;;;;;;;7.38;2.67;;;19.20;38.50;;;;;;5020316;28;19906;-76
2023/04/30 12:35:08;;;;;;;8.75;3.00;;;18.50;39.40;;;;;;5018870;28;20025;-76
2023/04/30 12:37:34;;;;;;;7.65;2.90;;;19.30;39.60;;;;;;5019547;28;20114;-76
2023/04/30 12:39:59;;;;;;;8.15;3.10;;;19.80;40.10;;;;;;5020234;28;20289;-76
2023/04/30 12:42:33;;;;;;;8.98;2.90;;;19.40;35.70;;;;;;5016874;28;20033;-76
2023/04/30 12:44:58;;;;;;;6.88;2.70;;;18.50;37.20;;;;;;5009819;28;20033;-76
2023/04/30 12:47:24;;;;;;;10.18;3.42;;;19.10;37.20;;;;;;5014459;28;20030;-76
2023/04/30 12:49:50;;;;;;;7.28;2.17;;;20.20;35.80;;;;;;5016876;28;20061;-76